createdAt,value
2019-05-21T00:02:11.175Z,4.60
2019-05-21T00:04:41.657Z,4.70
2019-05-21T00:07:12.186Z,4.20
2019-05-21T00:09:45.764Z,4.50
2019-05-21T00:12:17.965Z,4.07
2019-05-21T00:14:48.499Z,4.70
2019-05-21T00:17:21.696Z,4.43
2019-05-21T00:19:55.244Z,4.13
2019-05-21T00:22:28.804Z,4.30
2019-05-21T00:25:00.107Z,4.13
2019-05-21T00:27:31.190Z,3.97
2019-05-21T00:30:56.156Z,4.23
2019-05-21T00:34:21.013Z,4.23
2019-05-21T00:37:47.172Z,3.80
2019-05-21T00:41:12.275Z,4.03
2019-05-21T00:43:53.298Z,4.20
2019-05-21T00:46:23.946Z,4.33
2019-05-21T00:48:54.483Z,4.27
2019-05-21T00:51:25.102Z,4.37
2019-05-21T00:53:55.617Z,4.00
2019-05-21T00:56:26.159Z,4.80
2019-05-21T00:58:56.652Z,4.70
2019-05-21T01:01:27.252Z,4.03
2019-05-21T01:03:57.829Z,3.90
2019-05-21T01:06:28.404Z,3.80
2019-05-21T01:08:59.014Z,3.83
2019-05-21T01:11:29.673Z,4.20
2019-05-21T01:14:00.202Z,3.77
2019-05-21T01:16:30.714Z,3.80
2019-05-21T01:19:01.334Z,4.20
2019-05-21T01:21:31.887Z,3.70
2019-05-21T01:24:02.484Z,3.90
2019-05-21T01:26:34.019Z,4.00
2019-05-21T01:29:05.283Z,3.47
2019-05-21T01:31:35.858Z,4.40
2019-05-21T01:34:06.477Z,3.60
2019-05-21T01:36:37.019Z,3.57
2019-05-21T01:39:07.922Z,3.70
2019-05-21T01:41:38.316Z,3.90
2019-05-21T01:44:08.839Z,4.20
2019-05-21T01:46:39.375Z,4.00
2019-05-21T01:49:09.871Z,3.83
2019-05-21T01:51:40.865Z,3.87
2019-05-21T01:54:11.405Z,3.37
2019-05-21T01:56:42.010Z,3.80
2019-05-21T01:59:12.528Z,4.10
2019-05-21T02:01:43.799Z,3.80
2019-05-21T02:04:14.337Z,3.67
2019-05-21T02:06:49.212Z,3.93
2019-05-21T02:09:18.751Z,4.20
2019-05-21T02:11:51.104Z,4.10
2019-05-21T02:14:21.722Z,4.07
2019-05-21T02:16:52.361Z,4.20
2019-05-21T02:19:22.827Z,3.83
2019-05-21T02:21:53.340Z,4.00
2019-05-21T02:24:23.814Z,4.20
2019-05-21T02:26:54.908Z,3.97
2019-05-21T02:29:26.519Z,4.20
2019-05-21T02:31:58.148Z,4.60
2019-05-21T02:34:29.375Z,4.00
2019-05-21T02:36:59.890Z,4.17
2019-05-21T02:39:30.467Z,4.10
2019-05-21T02:42:01.213Z,4.00
2019-05-21T02:44:31.835Z,4.40
2019-05-21T02:47:02.269Z,4.50
2019-05-21T02:49:32.817Z,4.47
2019-05-21T02:52:03.479Z,4.20
2019-05-21T02:54:40.679Z,3.77
2019-05-21T02:57:06.783Z,3.77
2019-05-21T02:59:38.000Z,4.60
2019-05-21T03:02:13.067Z,4.30
2019-05-21T03:04:44.450Z,3.90
2019-05-21T03:07:17.879Z,4.40
2019-05-21T03:09:50.312Z,4.23
2019-05-21T03:12:20.974Z,4.50
2019-05-21T03:14:51.554Z,4.20
2019-05-21T03:17:22.216Z,4.13
2019-05-21T03:19:52.723Z,4.70
2019-05-21T03:22:23.180Z,4.83
2019-05-21T03:24:53.653Z,4.30
2019-05-21T03:27:25.051Z,4.00
2019-05-21T03:29:55.615Z,4.03
2019-05-21T03:35:19.400Z,3.83
2019-05-21T03:37:50.034Z,3.90
2019-05-21T03:40:21.512Z,4.10
2019-05-21T03:42:52.133Z,4.07
2019-05-21T03:45:24.186Z,4.60
2019-05-21T03:47:54.740Z,4.27
2019-05-21T03:50:25.307Z,4.47
2019-05-21T03:52:55.872Z,4.53
2019-05-21T03:55:26.529Z,3.50
2019-05-21T03:57:56.919Z,4.57
2019-05-21T04:00:27.489Z,4.63
2019-05-21T04:02:58.015Z,4.83
2019-05-21T04:05:28.843Z,5.20
2019-05-21T04:08:00.091Z,4.90
2019-05-21T04:10:30.664Z,4.70
2019-05-21T04:13:07.871Z,4.50
2019-05-21T04:15:55.268Z,4.70
2019-05-21T04:18:30.013Z,4.93
2019-05-21T04:21:01.519Z,4.87
2019-05-21T04:23:31.979Z,4.80
2019-05-21T04:26:03.675Z,4.47
2019-05-21T04:28:35.074Z,4.67
2019-05-21T04:31:06.198Z,5.00
2019-05-21T04:33:36.692Z,4.80
2019-05-21T04:36:07.217Z,4.30
2019-05-21T04:38:38.254Z,3.90
2019-05-21T04:41:08.798Z,4.00
2019-05-21T04:43:39.806Z,3.60
2019-05-21T04:46:10.501Z,3.20
2019-05-21T04:48:42.079Z,3.90
2019-05-21T04:51:13.956Z,3.63
2019-05-21T04:53:44.965Z,3.40
2019-05-21T04:56:15.484Z,4.07
2019-05-21T04:58:45.939Z,3.37
2019-05-21T05:01:16.418Z,2.90
2019-05-21T05:03:47.381Z,3.37
2019-05-21T05:06:17.971Z,3.27
2019-05-21T05:08:48.832Z,2.80
2019-05-21T05:11:19.394Z,3.10
2019-05-21T05:13:50.735Z,2.60
2019-05-21T05:16:24.362Z,3.03
2019-05-21T05:18:55.391Z,2.73
2019-05-21T05:21:26.938Z,2.60
2019-05-21T05:23:58.349Z,2.70
2019-05-21T05:26:28.980Z,2.70
2019-05-21T05:28:59.966Z,2.23
2019-05-21T05:31:30.462Z,2.17
2019-05-21T05:34:01.823Z,2.77
2019-05-21T05:36:32.989Z,2.30
2019-05-21T05:39:04.685Z,2.20
2019-05-21T05:41:39.066Z,2.13
2019-05-21T05:44:09.717Z,2.40
2019-05-21T05:46:43.661Z,2.40
2019-05-21T05:49:15.863Z,2.60
2019-05-21T05:51:49.668Z,2.43
2019-05-21T05:54:22.402Z,2.37
2019-05-21T05:56:54.399Z,2.10
2019-05-21T05:59:24.890Z,2.27
2019-05-21T06:01:55.442Z,2.63
2019-05-21T06:04:25.940Z,2.50
2019-05-21T06:06:56.528Z,2.13
2019-05-21T06:09:27.352Z,2.30
2019-05-21T06:11:57.950Z,2.50
2019-05-21T06:14:28.503Z,2.73
2019-05-21T06:17:00.323Z,2.73
2019-05-21T06:19:34.206Z,2.17
2019-05-21T06:22:06.841Z,1.80
2019-05-21T06:24:37.764Z,2.23
2019-05-21T06:27:11.460Z,2.33
2019-05-21T06:29:42.959Z,1.60
2019-05-21T06:32:13.943Z,2.00
2019-05-21T06:34:44.581Z,1.67
2019-05-21T06:37:15.187Z,1.60
2019-05-21T06:39:45.635Z,1.57
2019-05-21T06:42:16.881Z,2.00
2019-05-21T06:44:48.441Z,1.47
2019-05-21T06:47:19.343Z,1.77
2019-05-21T06:49:49.867Z,1.97
2019-05-21T06:52:20.448Z,1.70
2019-05-21T06:54:53.495Z,1.23
2019-05-21T06:57:24.019Z,1.60
2019-05-21T06:59:56.917Z,1.63
2019-05-21T07:02:27.405Z,1.30
2019-05-21T07:04:57.956Z,1.30
2019-05-21T07:07:30.681Z,1.20
2019-05-21T07:10:01.176Z,1.50
2019-05-21T07:12:32.982Z,1.23
2019-05-21T07:15:04.346Z,1.23
2019-05-21T07:17:36.508Z,1.10
2019-05-21T07:20:12.844Z,1.07
2019-05-21T07:22:43.543Z,1.10
2019-05-21T07:25:15.513Z,1.13
2019-05-21T07:27:46.436Z,1.00
2019-05-21T07:30:19.621Z,0.87
2019-05-21T07:32:50.302Z,1.17
2019-05-21T07:35:20.924Z,1.23
2019-05-21T07:37:51.551Z,0.90
2019-05-21T07:40:23.847Z,1.40
2019-05-21T07:42:54.367Z,1.30
2019-05-21T07:45:24.946Z,1.60
2019-05-21T07:47:55.455Z,1.40
2019-05-21T07:50:25.957Z,1.43
2019-05-21T07:53:00.469Z,1.10
2019-05-21T07:55:31.812Z,1.10
2019-05-21T07:58:02.266Z,1.00
2019-05-21T08:00:34.161Z,1.30
2019-05-21T08:03:04.766Z,2.67
2019-05-21T08:05:35.291Z,6.47
2019-05-21T08:08:05.966Z,1.40
2019-05-21T08:10:37.435Z,1.47
2019-05-21T08:13:08.501Z,1.50
2019-05-21T08:15:38.987Z,1.17
2019-05-21T08:18:10.763Z,1.20
2019-05-21T08:20:41.332Z,1.63
2019-05-21T08:23:12.386Z,1.23
2019-05-21T08:25:43.323Z,1.20
2019-05-21T08:28:13.893Z,1.37
2019-05-21T08:30:45.144Z,1.33
2019-05-21T08:33:15.785Z,1.10
2019-05-21T08:35:46.377Z,1.13
2019-05-21T08:38:16.874Z,1.40
2019-05-21T08:40:47.685Z,1.07
2019-05-21T08:43:18.316Z,1.13
2019-05-21T08:45:48.830Z,1.00
2019-05-21T08:48:20.862Z,1.03
2019-05-21T08:50:51.408Z,1.00
2019-05-21T08:53:22.366Z,1.27
2019-05-21T08:55:52.957Z,1.13
2019-05-21T08:58:23.519Z,0.90
2019-05-21T09:00:55.310Z,1.10
2019-05-21T09:03:25.961Z,1.67
2019-05-21T09:05:56.891Z,1.07
2019-05-21T09:08:27.482Z,1.40
2019-05-21T09:10:57.989Z,1.30
2019-05-21T09:13:28.525Z,1.10
2019-05-21T09:15:59.137Z,1.20
2019-05-21T09:18:29.787Z,1.63
2019-05-21T09:21:00.409Z,1.50
2019-05-21T09:23:30.981Z,1.87
2019-05-21T09:26:02.121Z,1.80
2019-05-21T09:28:35.909Z,1.37
2019-05-21T09:31:08.699Z,1.83
2019-05-21T09:33:39.340Z,1.93
2019-05-21T09:36:09.888Z,1.17
2019-05-21T09:38:40.859Z,1.10
2019-05-21T09:44:05.834Z,1.50
2019-05-21T09:46:36.483Z,1.23
2019-05-21T09:49:07.160Z,1.60
2019-05-21T09:51:37.738Z,1.13
2019-05-21T09:54:08.753Z,1.00
2019-05-21T09:56:39.548Z,0.83
2019-05-21T09:59:13.398Z,1.00
2019-05-21T10:01:51.777Z,1.40
2019-05-21T10:04:22.443Z,0.93
2019-05-21T10:06:52.981Z,0.87
2019-05-21T10:09:23.642Z,1.07
2019-05-21T10:11:54.323Z,1.30
2019-05-21T10:14:25.097Z,1.03
2019-05-21T10:16:56.959Z,0.97
2019-05-21T10:19:27.504Z,1.30
2019-05-21T10:21:58.294Z,1.53
2019-05-21T10:24:28.987Z,1.00
2019-05-21T10:27:03.296Z,1.00
2019-05-21T10:29:32.410Z,1.10
2019-05-21T10:32:03.931Z,0.80
2019-05-21T10:34:34.867Z,0.70
2019-05-21T10:37:06.131Z,0.90
2019-05-21T10:39:36.762Z,0.90
2019-05-21T10:42:07.404Z,0.90
2019-05-21T10:44:37.883Z,0.90
2019-05-21T10:47:08.475Z,1.10
2019-05-21T10:49:39.712Z,1.00
2019-05-21T10:52:10.203Z,0.90
2019-05-21T10:54:40.834Z,0.90
2019-05-21T10:57:11.597Z,0.93
2019-05-21T10:59:42.741Z,0.63
2019-05-21T11:02:14.902Z,1.03
2019-05-21T11:04:53.017Z,0.80
2019-05-21T11:07:23.858Z,0.87
2019-05-21T11:09:55.191Z,0.77
2019-05-21T11:12:26.221Z,0.90
2019-05-21T11:14:57.459Z,1.50
2019-05-21T11:17:31.096Z,1.60
2019-05-21T11:20:00.666Z,1.20
2019-05-21T11:22:31.325Z,1.00
2019-05-21T11:25:01.735Z,0.97
2019-05-21T11:27:32.395Z,1.27
2019-05-21T11:30:04.759Z,1.23
2019-05-21T11:32:36.288Z,0.80
2019-05-21T11:35:08.963Z,1.10
2019-05-21T11:37:39.603Z,1.30
2019-05-21T11:40:11.589Z,2.43
2019-05-21T11:42:42.054Z,2.40
2019-05-21T11:45:12.954Z,0.83
2019-05-21T11:47:43.504Z,1.70
2019-05-21T11:50:37.925Z,2.13
2019-05-21T11:53:08.518Z,4.50
2019-05-21T11:55:39.553Z,3.20
2019-05-21T11:58:11.054Z,3.30
2019-05-21T12:00:41.815Z,2.80
2019-05-21T12:03:13.163Z,4.10
2019-05-21T12:05:51.864Z,2.83
2019-05-21T12:08:23.147Z,1.47
2019-05-21T12:10:53.797Z,0.90
2019-05-21T12:13:24.342Z,2.20
2019-05-21T12:15:54.928Z,1.17
2019-05-21T12:18:25.465Z,1.40
2019-05-21T12:20:56.060Z,2.47
2019-05-21T12:23:27.550Z,1.83
2019-05-21T12:25:59.515Z,1.33
2019-05-21T12:28:30.050Z,0.97
2019-05-21T12:31:00.946Z,2.30
2019-05-21T12:33:35.161Z,1.70
2019-05-21T12:36:07.211Z,1.00
2019-05-21T12:38:37.699Z,1.00
2019-05-21T12:41:13.215Z,1.07
2019-05-21T12:43:43.977Z,0.80
2019-05-21T12:46:14.583Z,0.60
2019-05-21T12:48:45.568Z,0.53
2019-05-21T12:51:16.878Z,0.50
2019-05-21T12:53:47.544Z,0.70
2019-05-21T12:56:18.626Z,1.13
2019-05-21T12:58:49.909Z,1.00
2019-05-21T13:01:22.176Z,0.67
2019-05-21T13:03:55.387Z,0.80
2019-05-21T13:06:25.000Z,1.20
2019-05-21T13:08:55.545Z,1.07
2019-05-21T13:11:27.053Z,1.27
2019-05-21T13:13:58.083Z,1.00
2019-05-21T13:16:29.876Z,1.07
2019-05-21T13:19:01.697Z,3.90
2019-05-21T13:21:32.323Z,1.10
2019-05-21T13:24:02.951Z,0.90
2019-05-21T13:26:34.025Z,1.90
2019-05-21T13:29:04.773Z,1.10
2019-05-21T13:31:35.302Z,0.93
2019-05-21T13:34:07.005Z,1.10
2019-05-21T13:36:37.634Z,1.10
2019-05-21T13:39:10.160Z,1.00
2019-05-21T13:41:43.721Z,0.83
2019-05-21T13:44:14.299Z,1.40
2019-05-21T13:52:05.727Z,1.60
2019-05-21T13:54:36.399Z,1.30
2019-05-21T13:57:06.961Z,1.47
2019-05-21T13:59:37.602Z,1.23
2019-05-21T14:02:10.442Z,1.00
2019-05-21T14:04:41.151Z,1.10
2019-05-21T14:07:12.656Z,1.20
2019-05-21T14:09:43.605Z,1.20
2019-05-21T14:12:16.805Z,1.03
2019-05-21T14:14:50.527Z,1.00
2019-05-21T14:17:22.387Z,1.90
2019-05-21T14:19:53.042Z,1.13
2019-05-21T14:22:23.834Z,1.90
2019-05-21T14:24:54.545Z,1.30
2019-05-21T14:27:41.533Z,1.20
2019-05-21T14:29:59.538Z,1.30
2019-05-21T14:32:30.364Z,1.50
2019-05-21T14:35:07.091Z,1.77
2019-05-21T14:37:37.872Z,1.50
2019-05-21T14:40:11.566Z,1.23
2019-05-21T14:42:58.085Z,1.50
2019-05-21T14:45:15.034Z,1.70
2019-05-21T14:47:47.886Z,1.03
2019-05-21T14:50:19.037Z,1.23
2019-05-21T14:52:52.237Z,1.60
2019-05-21T14:55:24.362Z,1.33
2019-05-21T14:57:58.727Z,1.60
2019-05-21T15:00:31.566Z,1.10
2019-05-21T15:03:03.748Z,1.73
2019-05-21T15:05:38.141Z,1.90
2019-05-21T15:08:08.951Z,1.53
2019-05-21T15:10:48.432Z,1.23
2019-05-21T15:13:15.133Z,6.40
2019-05-21T15:15:48.917Z,1.20
2019-05-21T15:18:22.360Z,2.00
2019-05-21T15:21:07.433Z,1.67
2019-05-21T15:23:38.732Z,1.87
2019-05-21T15:26:10.720Z,1.93
2019-05-21T15:28:41.819Z,10.20
2019-05-21T15:31:12.751Z,1.80
2019-05-21T15:33:43.323Z,3.10
2019-05-21T15:36:15.012Z,2.37
2019-05-21T15:38:59.991Z,2.47
2019-05-21T15:41:32.211Z,3.13
2019-05-21T15:44:03.561Z,1.83
2019-05-21T15:46:47.845Z,1.80
2019-05-21T15:49:07.328Z,2.40
2019-05-21T15:51:37.878Z,2.83
2019-05-21T15:54:08.521Z,2.47
2019-05-21T15:56:44.582Z,2.23
2019-05-21T15:59:15.270Z,2.17
2019-05-21T16:01:46.551Z,2.27
2019-05-21T16:04:18.474Z,2.00
2019-05-21T16:06:51.048Z,2.40
2019-05-21T16:09:21.755Z,5.03
2019-05-21T16:11:52.807Z,1.90
2019-05-21T16:14:26.891Z,2.10
2019-05-21T16:16:57.899Z,1.73
2019-05-21T16:19:28.818Z,1.90
2019-05-21T16:21:59.519Z,1.73
2019-05-21T16:24:31.689Z,2.07
2019-05-21T16:27:02.678Z,1.80
2019-05-21T16:29:36.364Z,1.83
2019-05-21T16:32:08.542Z,1.77
2019-05-21T16:34:39.269Z,1.80
2019-05-21T16:37:18.353Z,1.63
2019-05-21T16:39:47.307Z,1.63
2019-05-21T16:42:16.870Z,1.70
2019-05-21T16:44:47.430Z,1.50
2019-05-21T16:47:20.542Z,1.17
2019-05-21T16:49:52.874Z,1.23
2019-05-21T16:52:24.424Z,1.53
2019-05-21T16:54:57.549Z,2.03
2019-05-21T16:57:29.097Z,1.83
2019-05-21T17:00:00.128Z,1.23
2019-05-21T17:02:32.078Z,0.97
2019-05-21T17:05:03.819Z,0.67
2019-05-21T17:07:34.898Z,0.73
2019-05-21T17:10:08.610Z,1.13
2019-05-21T17:12:39.514Z,1.30
2019-05-21T17:15:11.871Z,1.10
2019-05-21T17:17:43.173Z,1.13
2019-05-21T17:20:16.194Z,0.83
2019-05-21T17:22:47.038Z,1.10
2019-05-21T17:25:18.891Z,0.87
2019-05-21T17:27:50.639Z,1.17
2019-05-21T17:30:21.702Z,1.00
2019-05-21T17:32:53.963Z,0.90
2019-05-21T17:35:24.622Z,1.00
2019-05-21T17:37:56.182Z,0.70
2019-05-21T17:40:26.764Z,1.00
2019-05-21T17:42:57.905Z,5.20
2019-05-21T17:45:28.557Z,1.90
2019-05-21T17:47:59.224Z,0.90
2019-05-21T17:50:33.700Z,0.97
2019-05-21T17:53:04.720Z,1.13
2019-05-21T17:55:35.832Z,1.00
2019-05-21T17:58:07.125Z,0.87
2019-05-21T18:00:48.315Z,1.00
2019-05-21T18:03:20.217Z,0.80
2019-05-21T18:05:51.368Z,0.50
2019-05-21T18:08:23.158Z,0.70
2019-05-21T18:10:54.303Z,1.00
2019-05-21T18:13:27.396Z,0.77
2019-05-21T18:16:00.065Z,1.40
2019-05-21T18:18:31.683Z,1.20
2019-05-21T18:21:02.366Z,0.83
2019-05-21T18:23:33.024Z,0.70
2019-05-21T18:26:05.072Z,0.70
2019-05-21T18:28:37.246Z,0.87
2019-05-21T18:31:10.354Z,1.10
2019-05-21T18:33:40.693Z,1.30
2019-05-21T18:36:11.667Z,1.20
2019-05-21T18:38:44.007Z,0.90
2019-05-21T18:41:14.703Z,0.80
2019-05-21T18:43:49.912Z,1.07
2019-05-21T18:46:18.294Z,1.30
2019-05-21T18:48:51.588Z,1.10
2019-05-21T18:51:22.662Z,1.20
2019-05-21T18:53:53.459Z,1.30
2019-05-21T18:56:25.563Z,0.90
2019-05-21T18:58:56.151Z,1.30
2019-05-21T19:01:27.387Z,1.33
2019-05-21T19:04:00.328Z,1.63
2019-05-21T19:06:30.984Z,2.00
2019-05-21T19:09:04.198Z,1.70
2019-05-21T19:11:35.580Z,1.93
2019-05-21T19:14:09.447Z,2.57
2019-05-21T19:16:40.452Z,2.23
2019-05-21T19:19:12.815Z,2.00
2019-05-21T19:21:43.449Z,2.23
2019-05-21T19:24:14.488Z,2.17
2019-05-21T19:26:45.210Z,2.30
2019-05-21T19:29:15.867Z,2.40
2019-05-21T19:31:49.325Z,2.20
2019-05-21T19:34:19.892Z,2.13
2019-05-21T19:36:50.502Z,1.60
2019-05-21T19:39:23.493Z,1.80
2019-05-21T19:41:54.790Z,1.33
2019-05-21T19:44:25.492Z,1.50
2019-05-21T19:46:56.803Z,1.40
2019-05-21T19:49:27.849Z,1.73
2019-05-21T19:51:59.578Z,1.57
2019-05-21T19:54:48.682Z,1.03
2019-05-21T19:57:20.156Z,1.10
2019-05-21T19:59:50.861Z,1.30
2019-05-21T20:02:22.844Z,1.57
2019-05-21T20:04:53.875Z,1.60
2019-05-21T20:07:25.805Z,1.90
2019-05-21T20:09:56.690Z,1.20
2019-05-21T20:12:30.480Z,0.90
2019-05-21T20:15:01.248Z,1.10
2019-05-21T20:17:32.957Z,1.27
2019-05-21T20:20:05.066Z,1.00
2019-05-21T20:22:38.064Z,1.23
2019-05-21T20:25:13.495Z,1.00
2019-05-21T20:27:46.032Z,0.90
2019-05-21T20:30:19.004Z,1.23
2019-05-21T20:32:50.559Z,1.20
2019-05-21T20:35:23.064Z,0.73
2019-05-21T20:37:55.409Z,0.90
2019-05-21T20:40:29.280Z,0.83
2019-05-21T20:42:59.961Z,1.10
2019-05-21T20:45:31.617Z,0.97
2019-05-21T20:48:02.776Z,0.77
2019-05-21T20:50:35.083Z,1.30
2019-05-21T20:53:08.778Z,0.83
2019-05-21T20:55:43.520Z,0.90
2019-05-21T20:58:14.577Z,0.90
2019-05-21T21:00:50.292Z,0.80
2019-05-21T21:03:21.051Z,0.77
2019-05-21T21:05:52.312Z,0.90
2019-05-21T21:08:27.687Z,1.00
2019-05-21T21:10:57.074Z,0.77
2019-05-21T21:13:28.728Z,0.77
2019-05-21T21:15:59.943Z,0.93
2019-05-21T21:18:31.544Z,1.00
2019-05-21T21:21:02.424Z,0.90
2019-05-21T21:23:34.997Z,0.60
2019-05-21T21:26:06.054Z,0.50
2019-05-21T21:28:36.892Z,1.00
2019-05-21T21:31:07.971Z,0.40
2019-05-21T21:33:39.595Z,0.53
2019-05-21T21:36:10.164Z,0.63
2019-05-21T21:38:40.945Z,0.80
2019-05-21T21:41:12.713Z,1.07
2019-05-21T21:43:43.256Z,0.83
2019-05-21T21:46:13.795Z,0.80
2019-05-21T21:48:45.788Z,0.93
2019-05-21T21:51:17.608Z,0.80
2019-05-21T21:53:49.006Z,0.90
2019-05-21T21:56:19.882Z,1.10
2019-05-21T21:58:50.295Z,0.70
2019-05-21T22:01:42.006Z,1.07
2019-05-21T22:04:17.334Z,0.97
2019-05-21T22:06:49.560Z,0.60
2019-05-21T22:09:22.194Z,0.90
2019-05-21T22:11:55.309Z,0.43
2019-05-21T22:14:26.810Z,1.17
2019-05-21T22:16:58.455Z,0.70
2019-05-21T22:19:29.067Z,0.50
2019-05-21T22:21:59.911Z,0.97
2019-05-21T22:24:32.463Z,1.40
2019-05-21T22:27:04.267Z,0.80
2019-05-21T22:29:37.135Z,0.80
2019-05-21T22:32:08.054Z,0.70
2019-05-21T22:34:38.883Z,0.80
2019-05-21T22:37:11.582Z,0.90
2019-05-21T22:39:43.016Z,1.00
2019-05-21T22:42:15.853Z,1.33
2019-05-21T22:44:47.275Z,1.20
2019-05-21T22:47:17.967Z,1.00
2019-05-21T22:49:48.351Z,1.53
2019-05-21T22:52:18.880Z,1.03
2019-05-21T22:54:49.442Z,0.90
2019-05-21T22:57:20.203Z,1.00
2019-05-21T22:59:50.934Z,1.40
2019-05-21T23:02:23.160Z,0.97
2019-05-21T23:04:54.038Z,1.60
2019-05-21T23:07:24.544Z,1.03
2019-05-21T23:09:56.282Z,1.40
2019-05-21T23:12:28.784Z,1.40
2019-05-21T23:14:59.408Z,1.50
2019-05-21T23:17:30.302Z,1.43
2019-05-21T23:20:01.523Z,1.40
2019-05-21T23:22:33.087Z,1.20
2019-05-21T23:25:05.630Z,1.90
2019-05-21T23:27:38.766Z,1.53
2019-05-21T23:30:12.511Z,1.70
2019-05-21T23:32:44.266Z,1.67
2019-05-21T23:35:16.635Z,1.73
2019-05-21T23:37:49.065Z,1.93
2019-05-21T23:40:21.654Z,2.33
2019-05-21T23:42:53.524Z,2.20
2019-05-21T23:45:24.536Z,2.17
2019-05-21T23:47:55.601Z,2.27
2019-05-21T23:50:27.863Z,1.93
2019-05-21T23:53:00.099Z,2.20
2019-05-21T23:55:31.439Z,2.23
2019-05-21T23:58:02.101Z,2.53
